createdAt,value
2019-03-21T00:01:45.444Z,6.22
2019-03-21T00:04:18.917Z,7.58
2019-03-21T00:06:52.302Z,6.25
2019-03-21T00:09:25.746Z,6.25
2019-03-21T00:12:05.506Z,8.53
2019-03-21T00:14:44.949Z,7.55
2019-03-21T00:17:33.502Z,8.08
2019-03-21T00:20:09.852Z,9.03
2019-03-21T00:22:43.451Z,9.05
2019-03-21T00:25:22.360Z,6.87
2019-03-21T00:27:55.840Z,8.45
2019-03-21T00:30:29.239Z,7.37
2019-03-21T00:33:02.643Z,8.68
2019-03-21T00:35:38.489Z,6.95
2019-03-21T00:38:11.675Z,7.60
2019-03-21T00:40:46.006Z,7.35
2019-03-21T00:43:19.404Z,8.85
2019-03-21T00:45:52.799Z,8.83
2019-03-21T00:48:26.595Z,8.65
2019-03-21T00:51:01.230Z,8.15
2019-03-21T00:53:34.681Z,8.10
2019-03-21T00:56:08.147Z,8.68
2019-03-21T00:58:41.553Z,9.15
2019-03-21T01:01:14.870Z,7.65
2019-03-21T01:03:48.582Z,10.30
2019-03-21T01:06:21.896Z,9.55
2019-03-21T01:08:55.349Z,8.00
2019-03-21T01:11:28.763Z,11.40
2019-03-21T01:14:02.238Z,9.15
2019-03-21T01:16:35.590Z,9.73
2019-03-21T01:19:09.086Z,9.75
2019-03-21T01:21:42.543Z,12.45
2019-03-21T01:24:15.939Z,8.78
2019-03-21T01:26:49.440Z,10.28
2019-03-21T01:29:22.924Z,12.73
2019-03-21T01:31:56.435Z,11.93
2019-03-21T01:34:29.805Z,12.98
2019-03-21T01:37:03.326Z,12.75
2019-03-21T01:39:36.711Z,10.60
2019-03-21T01:42:10.121Z,12.00
2019-03-21T01:44:43.335Z,13.75
2019-03-21T01:47:16.691Z,11.50
2019-03-21T01:49:50.193Z,10.72
2019-03-21T01:52:24.255Z,11.30
2019-03-21T01:54:58.076Z,13.22
2019-03-21T01:57:31.503Z,13.30
2019-03-21T02:00:08.239Z,12.73
2019-03-21T02:02:42.240Z,10.70
2019-03-21T02:05:15.640Z,12.25
2019-03-21T02:07:49.775Z,10.60
2019-03-21T02:10:23.554Z,11.73
2019-03-21T02:12:57.132Z,13.62
2019-03-21T02:15:31.038Z,12.13
2019-03-21T02:18:05.009Z,15.48
2019-03-21T02:20:38.825Z,13.85
2019-03-21T02:23:13.946Z,9.95
2019-03-21T02:25:48.445Z,11.60
2019-03-21T02:28:22.080Z,14.25
2019-03-21T02:30:55.623Z,13.85
2019-03-21T02:33:31.722Z,13.48
2019-03-21T02:36:08.491Z,11.53
2019-03-21T02:38:41.927Z,13.45
2019-03-21T02:41:16.155Z,13.98
2019-03-21T02:43:49.846Z,12.18
2019-03-21T02:46:23.283Z,14.45
2019-03-21T02:48:56.631Z,12.98
2019-03-21T02:51:30.241Z,13.55
2019-03-21T02:54:05.386Z,12.85
2019-03-21T02:56:39.816Z,14.63
2019-03-21T02:59:13.532Z,13.40
2019-03-21T03:01:46.951Z,14.25
2019-03-21T03:04:20.389Z,14.55
2019-03-21T03:06:54.550Z,13.35
2019-03-21T03:09:27.982Z,14.07
2019-03-21T03:12:01.486Z,13.58
2019-03-21T03:14:34.900Z,14.18
2019-03-21T03:17:08.276Z,14.13
2019-03-21T03:19:41.772Z,13.90
2019-03-21T03:22:15.123Z,17.20
2019-03-21T03:24:48.610Z,14.15
2019-03-21T03:27:22.402Z,14.20
2019-03-21T03:29:55.901Z,13.30
2019-03-21T03:32:29.480Z,15.90
2019-03-21T03:35:03.215Z,14.20
2019-03-21T03:37:36.906Z,14.20
2019-03-21T03:40:23.727Z,11.60
2019-03-21T03:42:57.507Z,13.62
2019-03-21T03:45:38.302Z,16.32
2019-03-21T03:48:11.850Z,14.15
2019-03-21T03:50:45.211Z,15.48
2019-03-21T03:53:18.876Z,14.07
2019-03-21T03:55:52.276Z,14.03
2019-03-21T03:58:40.356Z,17.57
2019-03-21T04:01:14.062Z,14.28
2019-03-21T04:03:47.530Z,15.25
2019-03-21T04:06:20.895Z,15.35
2019-03-21T04:08:54.249Z,14.10
2019-03-21T04:11:27.737Z,15.10
2019-03-21T04:14:01.307Z,13.93
2019-03-21T04:16:34.725Z,16.82
2019-03-21T04:19:08.249Z,14.95
2019-03-21T04:21:41.648Z,13.78
2019-03-21T04:24:15.260Z,15.83
2019-03-21T04:26:48.987Z,15.32
2019-03-21T04:29:22.512Z,17.42
2019-03-21T04:31:55.906Z,16.35
2019-03-21T04:34:29.321Z,14.23
2019-03-21T04:37:02.976Z,15.40
2019-03-21T04:39:36.493Z,11.78
2019-03-21T04:42:10.554Z,14.15
2019-03-21T04:44:44.538Z,13.78
2019-03-21T04:47:19.422Z,13.70
2019-03-21T04:49:53.253Z,14.90
2019-03-21T04:52:27.145Z,14.07
2019-03-21T04:55:00.615Z,15.50
2019-03-21T04:57:34.672Z,13.98
2019-03-21T05:00:17.372Z,9.85
2019-03-21T05:02:53.039Z,13.68
2019-03-21T05:05:26.375Z,13.18
2019-03-21T05:07:59.830Z,14.03
2019-03-21T05:10:33.305Z,11.85
2019-03-21T05:13:07.039Z,11.65
2019-03-21T05:15:45.810Z,14.35
2019-03-21T05:18:25.453Z,11.68
2019-03-21T05:21:00.306Z,9.25
2019-03-21T05:23:33.762Z,9.53
2019-03-21T05:26:07.121Z,10.20
2019-03-21T05:28:40.525Z,11.45
2019-03-21T05:31:26.443Z,10.53
2019-03-21T05:33:59.888Z,11.08
2019-03-21T05:36:33.233Z,12.13
2019-03-21T05:39:09.115Z,11.68
2019-03-21T05:41:42.671Z,11.30
2019-03-21T05:44:31.261Z,10.93
2019-03-21T05:47:05.004Z,10.78
2019-03-21T05:49:38.705Z,14.15
2019-03-21T05:52:12.481Z,12.60
2019-03-21T05:54:46.120Z,12.75
2019-03-21T05:57:19.508Z,13.18
2019-03-21T05:59:53.147Z,13.25
2019-03-21T06:02:27.195Z,12.03
2019-03-21T06:05:00.672Z,10.40
2019-03-21T06:07:37.848Z,14.70
2019-03-21T06:10:14.593Z,11.83
2019-03-21T06:12:47.937Z,14.65
2019-03-21T06:15:24.482Z,13.98
2019-03-21T06:18:01.167Z,14.20
2019-03-21T06:20:55.852Z,15.75
2019-03-21T06:23:48.915Z,15.32
2019-03-21T06:26:50.365Z,16.02
2019-03-21T06:29:23.982Z,16.87
2019-03-21T06:31:57.551Z,17.52
2019-03-21T06:34:31.284Z,15.63
2019-03-21T06:37:04.743Z,17.02
2019-03-21T06:39:38.338Z,18.52
2019-03-21T06:42:11.653Z,17.05
2019-03-21T06:44:46.126Z,18.90
2019-03-21T06:47:19.272Z,17.10
2019-03-21T06:49:52.691Z,17.73
2019-03-21T06:52:26.115Z,19.17
2019-03-21T06:55:00.676Z,24.77
2019-03-21T06:57:34.818Z,18.65
2019-03-21T07:00:09.860Z,20.75
2019-03-21T07:02:43.279Z,19.12
2019-03-21T07:05:16.679Z,22.37
2019-03-21T07:07:50.393Z,20.88
2019-03-21T07:10:25.178Z,22.93
2019-03-21T07:12:58.700Z,18.87
2019-03-21T07:15:32.016Z,16.52
2019-03-21T07:18:05.769Z,18.40
2019-03-21T07:20:39.353Z,18.20
2019-03-21T07:23:13.790Z,20.97
2019-03-21T07:25:47.219Z,18.60
2019-03-21T07:28:20.562Z,18.77
2019-03-21T07:30:55.543Z,17.48
2019-03-21T07:33:29.198Z,20.95
2019-03-21T07:36:02.612Z,18.65
2019-03-21T07:38:36.029Z,18.02
2019-03-21T07:41:09.596Z,19.70
2019-03-21T07:43:42.936Z,18.87
2019-03-21T07:46:16.522Z,17.23
2019-03-21T07:48:49.927Z,17.05
2019-03-21T07:51:23.637Z,15.85
2019-03-21T07:53:57.044Z,13.58
2019-03-21T07:56:30.467Z,16.50
2019-03-21T07:59:03.885Z,14.78
2019-03-21T08:01:38.093Z,15.65
2019-03-21T08:04:11.683Z,13.83
2019-03-21T08:06:45.032Z,14.65
2019-03-21T08:09:18.603Z,13.50
2019-03-21T08:11:52.045Z,13.18
2019-03-21T08:14:25.347Z,11.45
2019-03-21T08:16:58.894Z,11.95
2019-03-21T08:19:32.214Z,12.43
2019-03-21T08:22:05.623Z,10.90
2019-03-21T08:24:38.975Z,12.35
2019-03-21T08:27:14.437Z,13.48
2019-03-21T08:29:47.786Z,13.08
2019-03-21T08:32:21.662Z,11.40
2019-03-21T08:34:55.177Z,13.65
2019-03-21T08:37:28.542Z,23.38
2019-03-21T08:40:03.028Z,17.57
2019-03-21T08:42:36.563Z,20.23
2019-03-21T08:45:09.927Z,13.32
2019-03-21T08:47:43.346Z,16.32
2019-03-21T08:50:16.846Z,21.70
2019-03-21T08:52:50.562Z,26.80
2019-03-21T08:55:23.851Z,11.48
2019-03-21T08:57:57.218Z,13.43
2019-03-21T09:00:34.439Z,22.50
2019-03-21T09:03:05.561Z,10.20
2019-03-21T09:05:38.880Z,13.03
2019-03-21T09:08:12.399Z,11.43
2019-03-21T09:10:45.770Z,12.63
2019-03-21T09:13:19.270Z,13.95
2019-03-21T09:15:52.762Z,12.63
2019-03-21T09:18:26.262Z,8.85
2019-03-21T09:20:59.605Z,12.33
2019-03-21T09:23:32.980Z,22.10
2019-03-21T09:26:06.281Z,12.75
2019-03-21T09:28:39.633Z,8.03
2019-03-21T09:31:13.008Z,11.93
2019-03-21T09:33:46.177Z,6.92
2019-03-21T09:36:21.154Z,12.10
2019-03-21T09:38:55.586Z,10.20
2019-03-21T09:41:28.924Z,8.58
2019-03-21T09:44:03.906Z,8.28
2019-03-21T09:46:37.204Z,9.55
2019-03-21T09:49:10.568Z,7.17
2019-03-21T09:51:44.195Z,7.60
2019-03-21T09:54:18.082Z,7.67
2019-03-21T09:56:51.376Z,6.05
2019-03-21T09:59:24.898Z,6.60
2019-03-21T10:01:58.290Z,7.53
2019-03-21T10:04:31.723Z,6.97
2019-03-21T10:07:05.143Z,8.43
2019-03-21T10:09:38.692Z,6.92
2019-03-21T10:12:12.125Z,8.43
2019-03-21T10:14:45.680Z,6.50
2019-03-21T10:17:19.324Z,8.35
2019-03-21T10:19:52.735Z,10.63
2019-03-21T10:22:26.314Z,7.58
2019-03-21T10:24:59.633Z,7.15
2019-03-21T10:27:34.612Z,7.60
2019-03-21T10:30:08.454Z,7.22
2019-03-21T10:32:42.938Z,7.42
2019-03-21T10:35:16.360Z,6.35
2019-03-21T10:37:49.663Z,5.50
2019-03-21T10:40:24.128Z,8.93
2019-03-21T10:42:57.428Z,7.53
2019-03-21T10:45:30.875Z,9.70
2019-03-21T10:48:04.552Z,9.48
2019-03-21T10:50:39.633Z,9.60
2019-03-21T10:53:12.989Z,11.28
2019-03-21T10:55:46.568Z,12.10
2019-03-21T10:58:19.872Z,9.90
2019-03-21T11:00:54.416Z,10.32
2019-03-21T11:03:27.781Z,8.48
2019-03-21T11:06:01.114Z,9.35
2019-03-21T11:08:34.532Z,11.75
2019-03-21T11:11:07.831Z,9.10
2019-03-21T11:13:41.194Z,8.88
2019-03-21T11:16:14.503Z,9.30
2019-03-21T11:18:47.893Z,10.80
2019-03-21T11:21:21.197Z,10.13
2019-03-21T11:23:54.615Z,10.80
2019-03-21T11:26:28.174Z,8.10
2019-03-21T11:29:01.539Z,9.75
2019-03-21T11:31:34.929Z,7.95
2019-03-21T11:34:08.355Z,13.78
2019-03-21T11:36:41.889Z,8.68
2019-03-21T11:39:15.330Z,10.90
2019-03-21T11:41:48.654Z,12.70
2019-03-21T11:44:22.231Z,10.88
2019-03-21T11:46:55.771Z,10.48
2019-03-21T11:49:29.163Z,13.55
2019-03-21T11:52:02.565Z,10.03
2019-03-21T11:54:36.055Z,9.98
2019-03-21T11:57:09.487Z,11.15
2019-03-21T11:59:51.530Z,12.53
2019-03-21T12:02:26.752Z,12.28
2019-03-21T12:04:53.321Z,12.70
2019-03-21T12:07:27.728Z,12.90
2019-03-21T12:10:00.916Z,16.00
2019-03-21T12:12:34.309Z,12.15
2019-03-21T12:15:12.351Z,12.45
2019-03-21T12:17:46.079Z,15.50
2019-03-21T12:20:27.629Z,12.73
2019-03-21T12:23:01.115Z,15.30
2019-03-21T12:25:34.457Z,13.22
2019-03-21T12:28:07.861Z,13.38
2019-03-21T12:30:41.437Z,16.77
2019-03-21T12:33:14.829Z,14.58
2019-03-21T12:35:48.260Z,16.10
2019-03-21T12:38:21.598Z,13.75
2019-03-21T12:40:55.145Z,15.23
2019-03-21T12:43:28.482Z,16.42
2019-03-21T12:46:02.024Z,17.35
2019-03-21T12:48:35.528Z,15.68
2019-03-21T12:51:08.954Z,13.35
2019-03-21T12:53:42.276Z,15.98
2019-03-21T12:56:15.627Z,18.30
2019-03-21T12:58:50.190Z,16.93
2019-03-21T13:01:23.556Z,14.93
2019-03-21T13:03:57.060Z,17.50
2019-03-21T13:06:30.424Z,14.55
2019-03-21T13:09:06.372Z,16.32
2019-03-21T13:11:39.845Z,14.85
2019-03-21T13:14:13.166Z,15.18
2019-03-21T13:16:46.700Z,14.40
2019-03-21T13:19:20.039Z,13.65
2019-03-21T13:21:53.543Z,15.40
2019-03-21T13:24:27.272Z,16.93
2019-03-21T13:27:00.721Z,15.25
2019-03-21T13:29:34.179Z,16.37
2019-03-21T13:32:07.706Z,16.45
2019-03-21T13:34:40.968Z,17.40
2019-03-21T13:37:14.323Z,14.70
2019-03-21T13:39:47.634Z,13.88
2019-03-21T13:42:21.006Z,14.00
2019-03-21T13:44:54.409Z,15.70
2019-03-21T13:47:29.471Z,15.30
2019-03-21T13:50:04.865Z,17.27
2019-03-21T13:52:39.279Z,16.23
2019-03-21T13:55:12.813Z,14.35
2019-03-21T13:57:46.213Z,16.70
2019-03-21T14:00:20.804Z,21.23
2019-03-21T14:02:54.201Z,17.62
2019-03-21T14:05:27.521Z,16.77
2019-03-21T14:08:00.985Z,16.25
2019-03-21T14:10:34.446Z,19.17
2019-03-21T14:13:07.916Z,17.50
2019-03-21T14:15:42.309Z,15.38
2019-03-21T14:18:15.873Z,17.20
2019-03-21T14:20:49.225Z,17.32
2019-03-21T14:23:23.284Z,15.43
2019-03-21T14:25:56.733Z,16.80
2019-03-21T14:28:30.103Z,14.93
2019-03-21T14:31:03.504Z,15.30
2019-03-21T14:33:37.002Z,16.02
2019-03-21T14:36:10.317Z,18.85
2019-03-21T14:38:43.758Z,17.92
2019-03-21T14:41:17.236Z,15.48
2019-03-21T14:43:50.863Z,20.97
2019-03-21T14:46:24.292Z,16.37
2019-03-21T14:48:57.759Z,18.98
2019-03-21T14:51:31.213Z,19.30
2019-03-21T14:54:04.570Z,17.48
2019-03-21T14:56:37.918Z,17.25
2019-03-21T14:59:11.325Z,14.15
2019-03-21T15:01:44.943Z,17.12
2019-03-21T15:04:18.326Z,15.60
2019-03-21T15:06:51.709Z,17.32
2019-03-21T15:09:25.192Z,17.82
2019-03-21T15:11:59.011Z,15.50
2019-03-21T15:14:32.539Z,17.07
2019-03-21T15:17:06.016Z,17.35
2019-03-21T15:19:39.502Z,17.70
2019-03-21T15:22:14.062Z,14.10
2019-03-21T15:24:47.603Z,13.20
2019-03-21T15:27:21.061Z,14.47
2019-03-21T15:29:56.266Z,12.25
2019-03-21T15:32:30.193Z,12.70
2019-03-21T15:35:07.272Z,12.53
2019-03-21T15:37:40.699Z,13.50
2019-03-21T15:40:14.816Z,11.73
2019-03-21T15:42:48.575Z,11.50
2019-03-21T15:45:23.781Z,11.48
2019-03-21T15:47:57.529Z,10.05
2019-03-21T15:50:38.372Z,10.03
2019-03-21T15:53:11.968Z,9.98
2019-03-21T15:55:45.483Z,11.18
2019-03-21T15:58:18.978Z,11.03
2019-03-21T16:00:52.861Z,9.85
2019-03-21T16:03:26.298Z,9.95
2019-03-21T16:05:59.629Z,9.40
2019-03-21T16:08:33.183Z,8.10
2019-03-21T16:11:06.613Z,7.67
2019-03-21T16:13:40.270Z,9.05
2019-03-21T16:16:13.759Z,8.55
2019-03-21T16:18:47.414Z,7.00
2019-03-21T16:21:20.809Z,8.25
2019-03-21T16:24:04.666Z,7.55
2019-03-21T16:26:29.236Z,12.03
2019-03-21T16:29:02.760Z,13.83
2019-03-21T16:31:36.348Z,12.85
2019-03-21T16:34:11.280Z,8.88
2019-03-21T16:36:45.161Z,11.08
2019-03-21T16:39:20.575Z,8.45
2019-03-21T16:41:54.216Z,10.00
2019-03-21T16:44:27.926Z,12.10
2019-03-21T16:47:01.538Z,10.60
2019-03-21T16:49:34.910Z,8.50
2019-03-21T16:52:08.844Z,11.83
2019-03-21T16:54:42.648Z,11.08
2019-03-21T16:57:16.248Z,10.13
2019-03-21T16:59:50.575Z,10.32
2019-03-21T17:02:24.541Z,9.70
2019-03-21T17:04:58.278Z,9.93
2019-03-21T17:07:31.852Z,8.25
2019-03-21T17:10:13.915Z,10.48
2019-03-21T17:12:47.798Z,10.05
2019-03-21T17:15:21.394Z,9.35
2019-03-21T17:17:55.099Z,8.78
2019-03-21T17:20:28.637Z,10.75
2019-03-21T17:23:02.159Z,10.75
2019-03-21T17:25:35.573Z,8.58
2019-03-21T17:28:09.490Z,9.78
2019-03-21T17:30:43.800Z,11.78
2019-03-21T17:33:17.301Z,9.40
2019-03-21T17:35:51.592Z,14.43
2019-03-21T17:38:25.182Z,13.32
2019-03-21T17:40:58.841Z,13.43
2019-03-21T17:43:32.236Z,12.55
2019-03-21T17:46:05.678Z,11.85
2019-03-21T17:48:40.345Z,11.40
2019-03-21T17:51:13.729Z,14.75
2019-03-21T17:53:47.346Z,12.23
2019-03-21T17:56:20.844Z,13.40
2019-03-21T17:58:54.164Z,14.35
2019-03-21T18:01:27.684Z,14.95
2019-03-21T18:04:00.989Z,15.20
2019-03-21T18:06:34.313Z,18.07
2019-03-21T18:09:07.911Z,16.15
2019-03-21T18:11:41.432Z,15.72
2019-03-21T18:14:14.792Z,19.57
2019-03-21T18:16:48.164Z,16.55
2019-03-21T18:19:21.623Z,19.90
2019-03-21T18:21:56.041Z,20.80
2019-03-21T18:24:29.466Z,20.48
2019-03-21T18:27:03.186Z,19.90
2019-03-21T18:29:36.730Z,17.90
2019-03-21T18:32:10.270Z,20.25
2019-03-21T18:34:43.986Z,17.77
2019-03-21T18:37:17.768Z,15.65
2019-03-21T18:39:51.260Z,16.35
2019-03-21T18:42:24.795Z,19.77
2019-03-21T18:44:58.052Z,18.00
2019-03-21T18:47:31.934Z,16.95
2019-03-21T18:50:10.329Z,17.42
2019-03-21T18:52:43.989Z,16.15
2019-03-21T18:55:17.400Z,13.58
2019-03-21T18:57:51.182Z,17.95
2019-03-21T19:00:24.590Z,15.00
2019-03-21T19:03:00.496Z,14.38
2019-03-21T19:05:37.125Z,15.80
2019-03-21T19:08:11.378Z,14.55
2019-03-21T19:11:03.681Z,14.75
2019-03-21T19:13:49.860Z,15.05
2019-03-21T19:16:25.118Z,14.98
2019-03-21T19:19:03.204Z,14.53
2019-03-21T19:21:38.686Z,14.93
2019-03-21T19:24:14.151Z,13.58
2019-03-21T19:26:53.616Z,12.75
2019-03-21T19:29:29.153Z,11.90
2019-03-21T19:32:02.681Z,14.95
2019-03-21T19:34:36.203Z,11.03
2019-03-21T19:37:09.669Z,12.43
2019-03-21T19:39:43.817Z,12.93
2019-03-21T19:42:17.947Z,13.25
2019-03-21T19:44:51.739Z,12.07
2019-03-21T19:47:30.323Z,12.37
2019-03-21T19:50:00.673Z,12.98
2019-03-21T19:52:34.137Z,10.98
2019-03-21T19:55:08.131Z,15.80
2019-03-21T19:57:41.505Z,11.73
2019-03-21T20:00:22.001Z,13.40
2019-03-21T20:02:55.399Z,17.98
2019-03-21T20:05:28.796Z,13.50
2019-03-21T20:08:02.299Z,14.20
2019-03-21T20:10:35.756Z,13.35
2019-03-21T20:13:09.243Z,11.88
2019-03-21T20:15:42.806Z,12.73
2019-03-21T20:18:16.391Z,11.18
2019-03-21T20:20:50.063Z,13.25
2019-03-21T20:23:23.464Z,14.78
2019-03-21T20:25:56.860Z,11.43
2019-03-21T20:28:30.295Z,14.53
2019-03-21T20:31:03.720Z,12.40
2019-03-21T20:33:37.120Z,20.75
2019-03-21T20:36:10.524Z,13.40
2019-03-21T20:38:43.925Z,13.22
2019-03-21T20:41:17.383Z,12.23
2019-03-21T20:43:50.910Z,12.10
2019-03-21T20:46:24.272Z,11.33
2019-03-21T20:48:56.705Z,10.35
2019-03-21T20:51:30.088Z,8.38
2019-03-21T20:54:03.352Z,8.40
2019-03-21T20:56:37.045Z,8.95
2019-03-21T20:59:10.228Z,10.50
2019-03-21T21:01:43.637Z,9.60
2019-03-21T21:04:17.122Z,8.70
2019-03-21T21:06:50.648Z,9.58
2019-03-21T21:09:24.068Z,8.33
2019-03-21T21:11:57.412Z,8.95
2019-03-21T21:14:30.806Z,7.78
2019-03-21T21:17:04.167Z,6.97
2019-03-21T21:19:37.675Z,7.20
2019-03-21T21:22:11.055Z,7.58
2019-03-21T21:24:44.361Z,7.37
2019-03-21T21:27:17.689Z,8.33
2019-03-21T21:29:52.264Z,7.50
2019-03-21T21:32:25.840Z,7.15
2019-03-21T21:34:59.273Z,8.38
2019-03-21T21:37:32.783Z,6.67
2019-03-21T21:40:07.654Z,7.25
2019-03-21T21:42:41.016Z,6.45
2019-03-21T21:45:15.652Z,6.42
2019-03-21T21:47:49.058Z,9.95
2019-03-21T21:50:22.384Z,6.72
2019-03-21T21:52:56.033Z,8.70
2019-03-21T21:55:29.402Z,6.92
2019-03-21T21:58:04.339Z,7.05
2019-03-21T22:00:37.690Z,7.35
2019-03-21T22:03:11.006Z,8.18
2019-03-21T22:05:44.562Z,9.15
2019-03-21T22:08:17.905Z,7.05
2019-03-21T22:10:51.250Z,7.97
2019-03-21T22:13:24.596Z,6.75
2019-03-21T22:15:57.860Z,7.40
2019-03-21T22:18:31.396Z,7.70
2019-03-21T22:21:04.853Z,7.97
2019-03-21T22:23:38.192Z,8.80
2019-03-21T22:26:11.669Z,7.00
2019-03-21T22:28:44.993Z,8.63
2019-03-21T22:31:18.290Z,9.50
2019-03-21T22:33:52.030Z,7.72
2019-03-21T22:36:25.367Z,7.60
2019-03-21T22:38:58.994Z,8.18
2019-03-21T22:41:32.379Z,9.38
2019-03-21T22:44:05.708Z,8.85
2019-03-21T22:46:39.029Z,10.13
2019-03-21T22:49:12.382Z,9.23
2019-03-21T22:51:46.685Z,8.78
2019-03-21T22:54:20.076Z,9.90
2019-03-21T22:56:53.530Z,9.28
2019-03-21T22:59:26.869Z,9.75
2019-03-21T23:02:01.593Z,9.35
2019-03-21T23:04:35.082Z,8.33
2019-03-21T23:07:08.468Z,9.28
2019-03-21T23:09:41.798Z,8.83
2019-03-21T23:12:15.273Z,9.35
2019-03-21T23:14:48.711Z,10.53
2019-03-21T23:17:22.140Z,9.88
2019-03-21T23:19:55.465Z,9.30
2019-03-21T23:22:28.832Z,9.63
2019-03-21T23:25:02.976Z,10.70
2019-03-21T23:27:36.405Z,10.40
2019-03-21T23:30:17.555Z,12.03
2019-03-21T23:32:50.891Z,12.03
2019-03-21T23:35:24.221Z,14.95
2019-03-21T23:37:57.558Z,12.35
2019-03-21T23:40:32.033Z,13.88
2019-03-21T23:43:05.432Z,12.50
2019-03-21T23:45:38.739Z,12.30
2019-03-21T23:48:12.202Z,12.58
2019-03-21T23:50:45.595Z,12.93
2019-03-21T23:53:18.967Z,12.47
2019-03-21T23:55:52.543Z,11.60
2019-03-21T23:58:25.914Z,11.88
